createdAt,value
2023-03-14T00:01:46.873Z,9.05
2023-03-14T00:04:49.318Z,9.11
2023-03-14T00:07:51.683Z,9.09
2023-03-14T00:10:54.065Z,9.12
2023-03-14T00:13:56.362Z,9.19
2023-03-14T00:16:58.789Z,9.05
2023-03-14T00:20:09.459Z,9.01
2023-03-14T00:23:11.863Z,9.24
2023-03-14T00:26:16.389Z,9.11
2023-03-14T00:29:18.759Z,9.20
2023-03-14T00:32:21.552Z,9.04
2023-03-14T00:35:24.142Z,9.05
2023-03-14T00:38:27.103Z,9.21
2023-03-14T00:41:29.582Z,9.21
2023-03-14T00:44:32.993Z,9.21
2023-03-14T00:47:35.438Z,9.30
2023-03-14T00:50:37.902Z,9.33
2023-03-14T00:53:40.818Z,9.33
2023-03-14T00:56:43.306Z,9.27
2023-03-14T00:59:45.710Z,9.21
2023-03-14T01:02:48.105Z,9.09
2023-03-14T01:05:50.632Z,9.17
2023-03-14T01:08:53.849Z,9.33
2023-03-14T01:11:56.434Z,9.39
2023-03-14T01:14:59.529Z,9.19
2023-03-14T01:18:01.853Z,9.10
2023-03-14T01:21:06.352Z,9.15
2023-03-14T01:24:09.015Z,9.09
2023-03-14T01:27:11.431Z,9.16
2023-03-14T01:30:14.664Z,9.18
2023-03-14T01:33:17.131Z,9.18
2023-03-14T01:36:21.332Z,9.21
2023-03-14T01:39:24.115Z,8.98
2023-03-14T01:42:26.945Z,8.84
2023-03-14T01:46:06.433Z,9.00
2023-03-14T01:49:20.921Z,9.06
2023-03-14T01:52:36.264Z,9.11
2023-03-14T01:55:39.548Z,9.17
2023-03-14T01:58:43.868Z,9.17
2023-03-14T02:01:48.985Z,9.02
2023-03-14T02:04:51.975Z,9.13
2023-03-14T02:08:00.608Z,8.99
2023-03-14T02:11:09.417Z,8.98
2023-03-14T02:14:39.213Z,9.01
2023-03-14T02:18:05.496Z,9.00
2023-03-14T02:21:55.915Z,8.83
2023-03-14T02:25:13.379Z,8.84
2023-03-14T02:28:16.468Z,8.83
2023-03-14T02:31:19.239Z,8.91
2023-03-14T02:34:21.809Z,8.87
2023-03-14T02:37:28.442Z,9.00
2023-03-14T02:40:31.274Z,8.97
2023-03-14T02:43:33.755Z,8.96
2023-03-14T02:46:38.467Z,8.96
2023-03-14T02:49:41.147Z,9.00
2023-03-14T02:52:43.527Z,9.09
2023-03-14T02:55:47.636Z,9.17
2023-03-14T02:58:51.880Z,9.22
2023-03-14T03:02:02.084Z,9.23
2023-03-14T03:05:04.871Z,9.22
2023-03-14T03:08:07.710Z,9.23
2023-03-14T03:11:10.556Z,9.15
2023-03-14T03:14:13.322Z,9.21
2023-03-14T03:17:15.727Z,9.20
2023-03-14T03:20:18.085Z,9.23
2023-03-14T03:23:20.588Z,9.22
2023-03-14T03:26:22.912Z,9.14
2023-03-14T03:29:25.894Z,9.32
2023-03-14T03:32:29.359Z,9.57
2023-03-14T03:35:33.014Z,9.62
2023-03-14T03:38:36.020Z,9.43
2023-03-14T03:41:41.578Z,9.54
2023-03-14T03:44:46.804Z,9.51
2023-03-14T03:47:49.699Z,9.35
2023-03-14T03:50:52.396Z,9.14
2023-03-14T03:53:59.424Z,8.98
2023-03-14T03:57:08.119Z,9.14
2023-03-14T04:00:13.790Z,9.21
2023-03-14T04:03:19.089Z,9.24
2023-03-14T04:06:22.011Z,9.28
2023-03-14T04:09:26.403Z,9.29
2023-03-14T04:12:47.522Z,9.18
2023-03-14T04:15:55.971Z,9.17
2023-03-14T04:19:02.407Z,9.29
2023-03-14T04:22:06.542Z,9.33
2023-03-14T04:25:14.977Z,9.19
2023-03-14T04:28:21.826Z,9.29
2023-03-14T04:31:24.406Z,9.21
2023-03-14T04:34:27.892Z,9.30
2023-03-14T04:37:32.091Z,9.22
2023-03-14T04:40:34.615Z,9.24
2023-03-14T04:53:09.543Z,8.20
2023-03-14T04:56:14.051Z,8.21
2023-03-14T04:59:19.170Z,8.24
2023-03-14T05:02:22.289Z,8.43
2023-03-14T05:05:54.031Z,8.46
2023-03-14T05:09:12.329Z,8.47
2023-03-14T05:12:37.946Z,8.46
2023-03-14T05:16:11.587Z,8.48
2023-03-14T05:19:28.838Z,8.53
2023-03-14T05:23:09.419Z,8.42
2023-03-14T05:26:38.182Z,8.56
2023-03-14T05:30:11.400Z,8.69
2023-03-14T05:33:13.898Z,8.72
2023-03-14T05:36:33.407Z,8.72
2023-03-14T05:39:41.537Z,8.76
2023-03-14T05:43:09.143Z,8.84
2023-03-14T05:46:37.680Z,8.90
2023-03-14T05:50:00.197Z,8.76
2023-03-14T05:53:21.208Z,8.90
2023-03-14T05:56:49.830Z,8.96
2023-03-14T06:00:14.296Z,8.96
2023-03-14T06:03:25.249Z,9.14
2023-03-14T06:06:28.512Z,8.99
2023-03-14T06:09:31.293Z,9.07
2023-03-14T06:12:36.765Z,9.12
2023-03-14T06:15:39.221Z,9.11
2023-03-14T06:18:42.076Z,9.14
2023-03-14T06:21:46.680Z,9.14
2023-03-14T06:24:49.472Z,9.17
2023-03-14T06:27:53.550Z,8.94
2023-03-14T06:30:56.885Z,9.24
2023-03-14T06:34:00.344Z,9.33
2023-03-14T06:37:06.892Z,9.28
2023-03-14T06:40:11.512Z,9.40
2023-03-14T06:43:37.160Z,9.43
2023-03-14T06:46:41.210Z,9.44
2023-03-14T06:49:43.967Z,9.28
2023-03-14T06:52:49.095Z,9.30
2023-03-14T06:55:56.670Z,9.55
2023-03-14T06:59:01.511Z,9.63
2023-03-14T07:02:09.456Z,9.76
2023-03-14T07:05:12.045Z,9.82
2023-03-14T07:08:14.594Z,9.72
2023-03-14T07:11:17.657Z,10.09
2023-03-14T07:14:20.932Z,10.08
2023-03-14T07:17:25.157Z,10.02
2023-03-14T07:20:27.709Z,10.04
2023-03-14T07:23:32.136Z,9.99
2023-03-14T07:26:35.037Z,9.94
2023-03-14T07:29:37.688Z,10.07
2023-03-14T07:32:40.754Z,9.91
2023-03-14T07:35:43.424Z,9.96
2023-03-14T07:38:45.900Z,9.88
2023-03-14T07:42:04.361Z,9.83
2023-03-14T07:45:25.206Z,9.72
2023-03-14T07:48:28.717Z,9.89
2023-03-14T07:51:31.102Z,9.88
2023-03-14T07:54:33.474Z,10.18
2023-03-14T07:57:35.953Z,10.08
2023-03-14T08:00:38.949Z,10.08
2023-03-14T08:03:41.377Z,10.27
2023-03-14T08:06:43.816Z,10.32
2023-03-14T08:09:46.261Z,10.39
2023-03-14T08:12:48.642Z,10.63
2023-03-14T08:15:52.298Z,10.57
2023-03-14T08:18:54.841Z,10.47
2023-03-14T08:21:57.155Z,10.65
2023-03-14T08:24:59.738Z,10.71
2023-03-14T08:28:02.322Z,10.83
2023-03-14T08:31:05.007Z,10.70
2023-03-14T08:34:08.122Z,10.77
2023-03-14T08:37:23.521Z,10.73
2023-03-14T08:40:28.557Z,10.70
2023-03-14T08:43:31.227Z,10.79
2023-03-14T08:46:33.795Z,10.72
2023-03-14T08:49:36.470Z,10.65
2023-03-14T08:52:41.297Z,10.90
2023-03-14T08:55:43.730Z,10.77
2023-03-14T08:58:46.092Z,10.69
2023-03-14T09:01:48.466Z,10.95
2023-03-14T09:04:53.819Z,11.00
2023-03-14T09:07:56.220Z,11.03
2023-03-14T09:10:58.867Z,11.08
2023-03-14T09:14:01.280Z,11.15
2023-03-14T09:17:05.324Z,11.16
2023-03-14T09:20:08.454Z,10.99
2023-03-14T09:23:10.938Z,11.28
2023-03-14T09:26:13.332Z,11.39
2023-03-14T09:29:15.736Z,11.47
2023-03-14T09:32:18.179Z,11.65
2023-03-14T09:35:20.654Z,11.92
2023-03-14T09:38:24.382Z,11.72
2023-03-14T09:41:32.401Z,11.65
2023-03-14T09:44:37.301Z,11.40
2023-03-14T09:47:49.363Z,11.48
2023-03-14T09:51:03.756Z,11.53
2023-03-14T09:54:07.198Z,11.58
2023-03-14T09:57:16.360Z,11.61
2023-03-14T10:00:25.199Z,11.57
2023-03-14T10:03:36.190Z,11.61
2023-03-14T10:06:38.754Z,11.72
2023-03-14T10:09:41.106Z,11.75
2023-03-14T10:12:56.886Z,11.76
2023-03-14T10:16:05.298Z,11.76
2023-03-14T10:19:11.528Z,11.86
2023-03-14T10:22:16.063Z,11.91
2023-03-14T10:25:28.124Z,11.94
2023-03-14T10:28:34.521Z,11.88
2023-03-14T10:32:00.065Z,11.95
2023-03-14T10:35:23.288Z,12.07
2023-03-14T10:38:29.387Z,12.23
2023-03-14T10:41:33.213Z,12.44
2023-03-14T10:44:36.322Z,12.81
2023-03-14T10:47:49.966Z,12.96
2023-03-14T10:50:59.894Z,13.10
2023-03-14T10:54:15.434Z,13.39
2023-03-14T10:57:21.559Z,13.12
2023-03-14T11:00:24.943Z,13.20
2023-03-14T11:03:28.923Z,13.34
2023-03-14T11:06:44.646Z,12.93
2023-03-14T11:10:05.101Z,12.96
2023-03-14T11:13:31.576Z,12.89
2023-03-14T11:16:58.329Z,12.55
2023-03-14T11:20:09.920Z,12.38
2023-03-14T11:23:15.703Z,12.54
2023-03-14T11:26:30.021Z,12.32
2023-03-14T11:29:43.595Z,12.41
2023-03-14T11:32:58.139Z,12.43
2023-03-14T11:36:08.766Z,12.25
2023-03-14T11:39:19.592Z,12.27
2023-03-14T11:42:23.050Z,12.23
2023-03-14T11:45:32.632Z,12.26
2023-03-14T11:49:04.585Z,12.21
2023-03-14T11:52:12.769Z,12.05
2023-03-14T11:55:28.987Z,12.11
2023-03-14T11:58:35.234Z,12.13
2023-03-14T12:01:54.922Z,12.00
2023-03-14T12:05:03.715Z,12.06
2023-03-14T12:08:29.076Z,12.10
2023-03-14T12:11:49.928Z,12.19
2023-03-14T12:15:22.389Z,12.15
2023-03-14T12:18:35.433Z,12.06
2023-03-14T12:22:10.033Z,12.17
2023-03-14T12:25:12.341Z,12.23
2023-03-14T12:28:23.033Z,12.12
2023-03-14T12:31:32.191Z,12.34
2023-03-14T12:34:43.234Z,12.41
2023-03-14T12:37:47.606Z,12.68
2023-03-14T12:41:21.236Z,12.47
2023-03-14T12:44:32.848Z,12.32
2023-03-14T12:47:38.136Z,12.52
2023-03-14T12:50:48.903Z,12.37
2023-03-14T12:54:12.878Z,12.26
2023-03-14T12:57:17.869Z,12.51
2023-03-14T13:00:25.045Z,12.46
2023-03-14T13:03:39.805Z,12.51
2023-03-14T13:06:55.323Z,12.36
2023-03-14T13:10:28.087Z,12.41
2023-03-14T13:13:30.675Z,12.50
2023-03-14T13:16:33.183Z,12.71
2023-03-14T13:19:36.335Z,12.81
2023-03-14T13:22:40.083Z,13.05
2023-03-14T13:25:42.598Z,13.03
2023-03-14T13:28:45.506Z,13.21
2023-03-14T13:31:50.228Z,13.15
2023-03-14T13:34:52.696Z,13.28
2023-03-14T13:38:15.909Z,13.13
2023-03-14T13:41:18.588Z,13.02
2023-03-14T13:44:33.514Z,12.89
2023-03-14T13:47:40.504Z,12.74
2023-03-14T13:50:53.646Z,12.93
2023-03-14T13:53:57.520Z,12.89
2023-03-14T13:57:07.113Z,12.97
2023-03-14T14:00:28.249Z,13.00
2023-03-14T14:03:37.360Z,12.96
2023-03-14T14:06:45.913Z,12.94
2023-03-14T14:09:50.877Z,12.76
2023-03-14T14:12:56.822Z,12.55
2023-03-14T14:16:01.520Z,12.62
2023-03-14T14:19:04.938Z,12.30
2023-03-14T14:22:08.460Z,12.22
2023-03-14T14:25:16.281Z,12.40
2023-03-14T14:28:31.253Z,12.23
2023-03-14T14:31:34.178Z,12.24
2023-03-14T14:35:09.729Z,12.08
2023-03-14T14:38:14.215Z,12.05
2023-03-14T14:41:18.662Z,11.96
2023-03-14T14:44:32.807Z,11.92
2023-03-14T14:47:35.268Z,11.96
2023-03-14T14:51:03.426Z,11.88
2023-03-14T14:54:17.593Z,11.81
2023-03-14T14:57:35.139Z,11.68
2023-03-14T15:00:41.538Z,11.70
2023-03-14T15:03:45.844Z,11.63
2023-03-14T15:06:49.426Z,11.77
2023-03-14T15:09:51.908Z,11.71
2023-03-14T15:12:54.559Z,11.91
2023-03-14T15:15:57.310Z,11.93
2023-03-14T15:19:08.763Z,11.97
2023-03-14T15:22:17.037Z,12.01
2023-03-14T15:25:43.483Z,11.87
2023-03-14T15:28:42.144Z,11.87
2023-03-14T15:31:45.610Z,11.99
2023-03-14T15:34:48.111Z,12.08
2023-03-14T15:37:50.526Z,12.27
2023-03-14T15:40:53.803Z,12.30
2023-03-14T15:43:56.767Z,12.44
2023-03-14T15:46:59.053Z,12.36
2023-03-14T15:50:01.520Z,12.45
2023-03-14T15:53:03.998Z,12.36
2023-03-14T15:56:07.421Z,12.37
2023-03-14T15:59:09.919Z,12.18
2023-03-14T16:02:12.309Z,12.05
2023-03-14T16:05:14.767Z,12.00
2023-03-14T16:08:17.954Z,11.94
2023-03-14T16:11:22.708Z,11.89
2023-03-14T16:14:25.519Z,11.56
2023-03-14T16:17:27.921Z,11.62
2023-03-14T16:20:35.847Z,11.60
2023-03-14T16:23:48.169Z,11.61
2023-03-14T16:26:50.568Z,11.41
2023-03-14T16:29:52.973Z,11.46
2023-03-14T16:32:55.547Z,11.38
2023-03-14T16:36:01.427Z,11.30
2023-03-14T16:39:04.837Z,11.22
2023-03-14T16:42:07.495Z,11.18
2023-03-14T16:45:10.582Z,11.14
2023-03-14T16:48:13.002Z,11.12
2023-03-14T16:51:16.666Z,11.13
2023-03-14T16:54:19.191Z,11.01
2023-03-14T16:57:21.867Z,10.25
2023-03-14T17:00:24.522Z,10.92
2023-03-14T17:03:28.049Z,10.87
2023-03-14T17:06:30.594Z,10.70
2023-03-14T17:09:32.966Z,10.92
2023-03-14T17:12:35.800Z,10.78
2023-03-14T17:15:38.608Z,10.85
2023-03-14T17:18:41.160Z,10.71
2023-03-14T17:21:43.801Z,10.74
2023-03-14T17:24:46.247Z,10.65
2023-03-14T17:27:48.566Z,10.67
2023-03-14T17:30:51.328Z,10.78
2023-03-14T17:33:55.203Z,10.92
2023-03-14T17:36:57.746Z,10.83
2023-03-14T17:40:01.931Z,10.68
2023-03-14T17:43:04.325Z,10.67
2023-03-14T17:46:12.002Z,10.55
2023-03-14T17:49:14.667Z,10.47
2023-03-14T17:52:17.030Z,10.40
2023-03-14T17:55:19.828Z,10.17
2023-03-14T17:58:22.669Z,10.37
2023-03-14T18:01:25.442Z,10.41
2023-03-14T18:04:27.970Z,10.54
2023-03-14T18:07:30.634Z,10.47
2023-03-14T18:10:33.026Z,10.66
2023-03-14T18:13:38.484Z,10.51
2023-03-14T18:16:41.872Z,10.45
2023-03-14T18:19:44.242Z,10.39
2023-03-14T18:22:46.745Z,10.43
2023-03-14T18:25:50.557Z,10.41
2023-03-14T18:28:52.940Z,10.32
2023-03-14T18:31:57.018Z,10.35
2023-03-14T18:34:59.476Z,10.09
2023-03-14T18:38:05.221Z,10.10
2023-03-14T18:41:08.015Z,10.24
2023-03-14T18:44:12.020Z,10.20
2023-03-14T18:47:14.436Z,10.13
2023-03-14T18:50:17.070Z,9.87
2023-03-14T18:53:19.483Z,9.88
2023-03-14T18:56:24.226Z,9.87
2023-03-14T18:59:27.319Z,9.86
2023-03-14T19:02:29.633Z,9.92
2023-03-14T19:05:31.960Z,9.90
2023-03-14T19:08:36.095Z,9.87
2023-03-14T19:11:38.521Z,9.87
2023-03-14T19:14:41.160Z,9.81
2023-03-14T19:17:43.687Z,9.77
2023-03-14T19:20:57.422Z,9.81
2023-03-14T19:24:00.443Z,9.77
2023-03-14T19:27:03.025Z,9.61
2023-03-14T19:30:05.787Z,9.77
2023-03-14T19:33:08.545Z,9.58
2023-03-14T19:36:28.664Z,9.68
2023-03-14T19:39:30.947Z,9.63
2023-03-14T19:42:33.701Z,9.51
2023-03-14T19:45:37.252Z,9.48
2023-03-14T19:48:39.993Z,9.45
2023-03-14T19:51:42.659Z,9.37
2023-03-14T19:54:46.612Z,9.32
2023-03-14T19:57:49.731Z,9.27
2023-03-14T20:00:52.125Z,9.12
2023-03-14T20:03:54.557Z,9.21
2023-03-14T20:06:57.017Z,9.21
2023-03-14T20:09:59.532Z,9.16
2023-03-14T20:13:09.116Z,9.23
2023-03-14T20:16:14.792Z,9.12
2023-03-14T20:19:17.200Z,8.84
2023-03-14T20:22:19.560Z,9.07
2023-03-14T20:25:22.824Z,9.19
2023-03-14T20:28:25.883Z,9.16
2023-03-14T20:31:28.392Z,9.20
2023-03-14T20:34:32.691Z,9.10
2023-03-14T20:37:34.964Z,8.92
2023-03-14T20:40:37.257Z,8.91
2023-03-14T20:43:39.852Z,8.90
2023-03-14T20:46:42.343Z,8.89
2023-03-14T20:49:44.724Z,8.82
2023-03-14T20:52:47.178Z,8.82
2023-03-14T20:55:50.620Z,8.93
2023-03-14T20:58:53.151Z,8.87
2023-03-14T21:05:19.318Z,8.73
2023-03-14T21:08:24.150Z,8.10
2023-03-14T21:11:26.495Z,6.75
2023-03-14T21:14:29.020Z,6.01
2023-03-14T21:17:31.364Z,5.27
2023-03-14T21:20:38.460Z,5.19
2023-03-14T21:23:41.346Z,4.75
2023-03-14T21:26:43.729Z,4.57
2023-03-14T21:29:46.112Z,4.40
2023-03-14T21:32:48.709Z,4.07
2023-03-14T21:35:53.302Z,3.76
2023-03-14T21:38:55.639Z,3.77
2023-03-14T21:41:58.078Z,3.61
2023-03-14T21:45:01.353Z,3.26
2023-03-14T21:48:03.944Z,3.01
2023-03-14T21:51:06.856Z,2.86
2023-03-14T21:54:10.790Z,2.59
2023-03-14T21:57:14.662Z,2.59
2023-03-14T22:00:20.065Z,2.47
2023-03-14T22:03:25.665Z,2.26
2023-03-14T22:06:28.813Z,2.29
2023-03-14T22:09:31.734Z,2.39
2023-03-14T22:12:34.513Z,2.10
2023-03-14T22:15:36.913Z,2.22
2023-03-14T22:18:39.604Z,2.13
2023-03-14T22:21:41.966Z,2.10
2023-03-14T22:24:44.286Z,2.27
2023-03-14T22:27:47.765Z,2.11
2023-03-14T22:30:51.618Z,1.91
2023-03-14T22:33:54.151Z,2.08
2023-03-14T22:36:56.427Z,1.96
2023-03-14T22:39:58.785Z,1.68
2023-03-14T22:43:01.093Z,1.56
2023-03-14T22:46:05.763Z,1.59
2023-03-14T22:49:08.178Z,1.50
2023-03-14T22:52:10.694Z,1.31
2023-03-14T22:55:13.212Z,1.44
2023-03-14T22:58:16.094Z,1.45
2023-03-14T23:01:18.516Z,1.40
2023-03-14T23:04:21.201Z,1.24
2023-03-14T23:07:23.919Z,1.58
2023-03-14T23:10:26.338Z,1.55
2023-03-14T23:13:29.733Z,1.54
2023-03-14T23:16:39.873Z,1.37
2023-03-14T23:19:45.691Z,1.37
2023-03-14T23:22:48.118Z,1.29
2023-03-14T23:25:53.672Z,1.43
2023-03-14T23:28:56.193Z,1.40
2023-03-14T23:31:58.851Z,1.33
2023-03-14T23:35:01.173Z,1.42
2023-03-14T23:38:03.720Z,1.36
2023-03-14T23:41:06.185Z,1.22
2023-03-14T23:44:08.743Z,1.36
2023-03-14T23:47:11.171Z,1.39
2023-03-14T23:50:13.716Z,1.44
2023-03-14T23:53:16.079Z,1.41
2023-03-14T23:56:18.797Z,1.54
2023-03-14T23:59:21.142Z,1.50
